New Sight, Mississippi
Current Conditions -  °F | °C
As of 3:22 AM on Friday 19 Dec 2014 (Local Time) from KMCB Reporting Station
Haze Haze  
Wind Chill: 51°   Ceiling: 400
Heat Index: 51°   Visibility: 5mi
Dew Point: 49°   Wind: 6mph
Humidity: 92%   Direction: 70°ENE
Pressure: 30.09"   Gusts: NA
Location:  31.5898°N, 90.4722°W
Report Text: KMCB 190922Z AUTO 07005KT 5SM BR BKN004 OVC013 11/09 A3009 RMK AO2 T01060094 $
Loading
Personal Weather Stations






























Interactive Weather Map New forecast layout! Learn more

10-Day Weather Forecast

Advertisements
Track Severe Weather on mobile